createdAt,value
2022-08-08T00:00:52.313Z,3.13
2022-08-08T00:02:31.274Z,3.07
2022-08-08T00:05:43.284Z,3.47
2022-08-08T00:08:27.139Z,3.23
2022-08-08T00:10:57.061Z,3.57
2022-08-08T00:14:17.691Z,3.37
2022-08-08T00:16:52.882Z,3.23
2022-08-08T00:19:46.719Z,3.27
2022-08-08T00:22:47.244Z,3.00
2022-08-08T00:25:23.059Z,3.47
2022-08-08T00:27:53.023Z,3.53
2022-08-08T00:30:24.087Z,3.47
2022-08-08T00:32:58.572Z,3.07
2022-08-08T00:35:40.118Z,3.27
2022-08-08T00:38:16.732Z,3.20
2022-08-08T00:41:14.888Z,2.70
2022-08-08T00:44:09.123Z,2.90
2022-08-08T00:47:19.693Z,3.17
2022-08-08T00:50:18.092Z,2.57
2022-08-08T00:53:06.841Z,3.13
2022-08-08T00:55:53.708Z,3.13
2022-08-08T00:58:30.685Z,3.03
2022-08-08T01:01:07.669Z,3.10
2022-08-08T01:04:04.163Z,3.70
2022-08-08T01:07:01.780Z,3.03
2022-08-08T01:10:28.843Z,3.57
2022-08-08T01:13:44.067Z,3.60
2022-08-08T01:16:34.144Z,3.33
2022-08-08T01:19:42.231Z,2.90
2022-08-08T01:22:15.753Z,3.00
2022-08-08T01:25:40.604Z,3.30
2022-08-08T01:28:45.159Z,3.63
2022-08-08T01:32:15.094Z,2.90
2022-08-08T01:34:55.682Z,3.33
2022-08-08T01:37:57.130Z,3.30
2022-08-08T01:40:53.575Z,3.33
2022-08-08T01:43:40.762Z,3.10
2022-08-08T01:46:28.588Z,3.10
2022-08-08T01:49:10.955Z,3.23
2022-08-08T01:53:42.464Z,3.43
2022-08-08T01:55:45.546Z,3.10
2022-08-08T01:58:39.750Z,3.20
2022-08-08T02:01:27.986Z,3.20
2022-08-08T02:04:15.729Z,3.10
2022-08-08T02:07:41.847Z,2.80
2022-08-08T02:10:44.723Z,3.30
2022-08-08T02:13:53.055Z,2.70
2022-08-08T02:16:36.163Z,2.43
2022-08-08T02:20:07.326Z,2.97
2022-08-08T02:22:55.184Z,3.10
2022-08-08T02:25:48.977Z,2.70
2022-08-08T02:28:56.870Z,3.10
2022-08-08T02:31:58.876Z,3.73
2022-08-08T02:35:08.164Z,2.63
2022-08-08T02:38:14.031Z,3.10
2022-08-08T02:40:59.815Z,2.73
2022-08-08T02:44:42.312Z,2.40
2022-08-08T02:46:36.636Z,2.63
2022-08-08T02:49:50.778Z,2.90
2022-08-08T02:52:39.721Z,2.80
2022-08-08T02:55:37.250Z,3.07
2022-08-08T02:58:16.692Z,3.10
2022-08-08T03:01:01.592Z,3.20
2022-08-08T03:05:03.067Z,2.70
2022-08-08T03:07:07.270Z,2.90
2022-08-08T03:10:31.645Z,3.47
2022-08-08T03:15:54.026Z,3.40
2022-08-08T03:16:34.330Z,2.90
2022-08-08T03:19:29.733Z,3.30
2022-08-08T03:21:58.350Z,3.13
2022-08-08T03:24:27.190Z,2.77
2022-08-08T03:27:35.774Z,3.40
2022-08-08T03:30:15.323Z,2.97
2022-08-08T03:33:07.831Z,3.63
2022-08-08T03:35:53.557Z,3.90
2022-08-08T03:38:54.041Z,4.10
2022-08-08T03:41:32.177Z,3.93
2022-08-08T03:43:59.657Z,4.00
2022-08-08T03:46:32.599Z,3.43
2022-08-08T03:49:54.905Z,3.67
2022-08-08T03:51:56.468Z,3.90
2022-08-08T03:54:41.459Z,4.13
2022-08-08T03:58:31.633Z,4.20
2022-08-08T04:00:07.879Z,3.60
2022-08-08T04:02:47.854Z,3.83
2022-08-08T04:05:27.989Z,4.40
2022-08-08T04:07:56.747Z,3.70
2022-08-08T04:10:25.565Z,3.27
2022-08-08T04:13:00.305Z,3.03
2022-08-08T04:15:30.500Z,3.30
2022-08-08T04:18:06.374Z,4.00
2022-08-08T04:20:36.646Z,2.90
2022-08-08T04:23:07.725Z,3.07
2022-08-08T04:25:38.401Z,2.80
2022-08-08T04:28:35.238Z,3.37
2022-08-08T04:30:55.345Z,3.20
2022-08-08T04:33:24.567Z,3.10
2022-08-08T04:35:54.315Z,4.30
2022-08-08T04:38:23.160Z,3.60
2022-08-08T04:40:54.227Z,3.33
2022-08-08T04:43:31.969Z,3.60
2022-08-08T04:46:09.938Z,3.57
2022-08-08T04:48:36.809Z,3.70
2022-08-08T04:51:03.720Z,3.67
2022-08-08T04:54:27.412Z,3.60
2022-08-08T04:56:18.287Z,3.90
2022-08-08T04:58:46.183Z,3.67
2022-08-08T05:01:15.358Z,3.40
2022-08-08T05:04:10.215Z,4.00
2022-08-08T05:06:29.691Z,3.63
2022-08-08T05:09:03.017Z,3.40
2022-08-08T05:11:38.907Z,3.20
2022-08-08T05:14:07.539Z,3.63
2022-08-08T05:16:55.393Z,3.17
2022-08-08T05:20:09.313Z,3.57
2022-08-08T05:22:10.416Z,3.10
2022-08-08T05:24:38.561Z,3.07
2022-08-08T05:27:06.587Z,2.83
2022-08-08T05:29:35.776Z,3.07
2022-08-08T05:32:07.285Z,3.60
2022-08-08T05:34:40.760Z,3.30
2022-08-08T05:37:17.367Z,3.17
2022-08-08T05:39:57.092Z,3.73
2022-08-08T05:42:41.054Z,3.00
2022-08-08T05:45:24.822Z,3.40
2022-08-08T05:48:00.402Z,3.20
2022-08-08T05:50:33.563Z,3.30
2022-08-08T05:53:53.918Z,3.40
2022-08-08T05:56:11.576Z,3.63
2022-08-08T05:58:57.132Z,3.37
2022-08-08T06:01:51.808Z,3.60
2022-08-08T06:04:22.818Z,3.27
2022-08-08T06:06:53.190Z,3.10
2022-08-08T06:10:00.123Z,3.30
2022-08-08T06:12:14.291Z,3.13
2022-08-08T06:14:47.799Z,3.60
2022-08-08T06:17:19.586Z,3.30
2022-08-08T06:19:48.089Z,3.33
2022-08-08T06:25:03.479Z,3.40
2022-08-08T06:27:48.077Z,3.37
2022-08-08T06:30:20.219Z,3.00
2022-08-08T06:33:01.262Z,2.97
2022-08-08T06:36:06.336Z,2.80
2022-08-08T06:38:28.744Z,2.70
2022-08-08T06:41:13.343Z,3.07
2022-08-08T06:43:47.540Z,3.77
2022-08-08T06:46:24.244Z,3.37
2022-08-08T06:48:51.281Z,3.43
2022-08-08T06:51:20.712Z,2.97
2022-08-08T06:53:51.258Z,2.67
2022-08-08T06:56:24.996Z,2.97
2022-08-08T06:58:53.267Z,3.50
2022-08-08T07:02:26.422Z,3.07
2022-08-08T07:04:37.446Z,3.47
2022-08-08T07:07:12.267Z,2.90
2022-08-08T07:10:03.842Z,3.17
2022-08-08T07:12:47.876Z,3.20
2022-08-08T07:15:32.416Z,2.60
2022-08-08T07:18:35.621Z,3.50
2022-08-08T07:21:04.916Z,2.70
2022-08-08T07:24:02.070Z,3.30
2022-08-08T07:26:29.038Z,2.90
2022-08-08T07:29:05.336Z,2.87
2022-08-08T07:31:35.499Z,2.80
2022-08-08T07:34:08.732Z,2.70
2022-08-08T07:36:42.103Z,2.63
2022-08-08T07:39:22.526Z,2.50
2022-08-08T07:42:04.651Z,2.87
2022-08-08T07:44:37.506Z,2.97
2022-08-08T07:47:07.528Z,2.70
2022-08-08T07:49:34.456Z,3.30
2022-08-08T07:52:02.947Z,2.67
2022-08-08T07:54:41.274Z,2.70
2022-08-08T07:57:17.438Z,2.63
2022-08-08T08:00:15.954Z,2.70
2022-08-08T08:02:51.736Z,2.67
2022-08-08T08:05:33.685Z,2.70
2022-08-08T08:08:04.112Z,2.80
2022-08-08T08:10:33.297Z,2.77
2022-08-08T08:13:26.020Z,2.30
2022-08-08T08:16:13.182Z,2.60
2022-08-08T08:18:55.981Z,2.43
2022-08-08T08:21:44.395Z,2.57
2022-08-08T08:24:15.989Z,2.80
2022-08-08T08:26:46.835Z,2.80
2022-08-08T08:29:19.752Z,2.73
2022-08-08T08:31:57.572Z,3.23
2022-08-08T08:34:31.955Z,3.23
2022-08-08T08:37:00.108Z,3.20
2022-08-08T08:40:00.204Z,3.27
2022-08-08T08:42:19.346Z,3.10
2022-08-08T08:44:57.058Z,2.80
2022-08-08T08:47:25.225Z,2.87
2022-08-08T08:49:52.389Z,2.50
2022-08-08T08:52:20.534Z,2.70
2022-08-08T08:54:49.582Z,2.80
2022-08-08T08:57:23.666Z,2.60
2022-08-08T09:00:00.093Z,2.43
2022-08-08T09:02:35.704Z,2.73
2022-08-08T09:05:08.995Z,2.90
2022-08-08T09:08:13.045Z,2.90
2022-08-08T09:10:48.092Z,2.70
2022-08-08T09:13:17.495Z,3.10
2022-08-08T09:15:51.035Z,3.03
2022-08-08T09:18:31.170Z,3.30
2022-08-08T09:22:02.131Z,3.03
2022-08-08T09:23:47.894Z,2.80
2022-08-08T09:26:39.654Z,3.27
2022-08-08T09:29:09.418Z,2.90
2022-08-08T09:32:14.631Z,2.57
2022-08-08T09:34:50.617Z,2.90
2022-08-08T09:37:57.141Z,2.70
2022-08-08T09:40:12.009Z,2.67
2022-08-08T09:42:51.838Z,2.67
2022-08-08T09:46:02.069Z,2.23
2022-08-08T09:48:27.921Z,2.67
2022-08-08T09:51:05.209Z,2.50
2022-08-08T09:53:54.770Z,2.70
2022-08-08T09:56:34.714Z,2.30
2022-08-08T09:59:39.511Z,2.80
2022-08-08T10:02:03.036Z,2.50
2022-08-08T10:04:47.901Z,2.77
2022-08-08T10:07:17.690Z,2.90
2022-08-08T10:09:59.557Z,2.77
2022-08-08T10:12:38.630Z,2.80
2022-08-08T10:15:24.328Z,2.80
2022-08-08T10:18:10.111Z,2.43
2022-08-08T10:20:51.360Z,2.40
2022-08-08T10:23:46.011Z,2.27
2022-08-08T10:26:58.518Z,2.40
2022-08-08T10:29:43.976Z,2.80
2022-08-08T10:32:55.194Z,2.10
2022-08-08T10:36:07.462Z,2.17
2022-08-08T10:38:16.628Z,2.53
2022-08-08T10:40:45.897Z,2.30
2022-08-08T10:43:14.464Z,2.40
2022-08-08T10:45:55.892Z,2.40
2022-08-08T10:48:57.513Z,2.37
2022-08-08T10:51:26.107Z,2.40
2022-08-08T10:53:57.444Z,2.63
2022-08-08T10:56:32.544Z,2.40
2022-08-08T10:59:08.182Z,2.50
2022-08-08T11:01:37.657Z,2.13
2022-08-08T11:04:11.819Z,2.00
2022-08-08T11:06:42.069Z,2.47
2022-08-08T11:09:19.790Z,2.20
2022-08-08T11:12:05.538Z,2.10
2022-08-08T11:14:49.543Z,1.97
2022-08-08T11:17:58.869Z,2.10
2022-08-08T11:20:12.276Z,2.43
2022-08-08T11:22:41.350Z,2.07
2022-08-08T11:25:13.906Z,1.87
2022-08-08T11:27:44.518Z,2.50
2022-08-08T11:30:20.395Z,1.97
2022-08-08T11:32:56.179Z,2.37
2022-08-08T11:35:37.727Z,2.63
2022-08-08T11:38:36.497Z,2.40
2022-08-08T11:40:56.711Z,2.37
2022-08-08T11:43:38.969Z,2.30
2022-08-08T11:46:13.376Z,2.50
2022-08-08T11:48:47.367Z,2.13
2022-08-08T11:51:29.470Z,2.53
2022-08-08T11:54:04.695Z,2.30
2022-08-08T11:56:35.692Z,2.23
2022-08-08T11:59:10.723Z,1.83
2022-08-08T12:01:38.027Z,1.80
2022-08-08T12:04:09.330Z,2.07
2022-08-08T12:06:39.267Z,2.23
2022-08-08T12:09:17.422Z,2.13
2022-08-08T12:11:46.129Z,2.00
2022-08-08T12:14:24.056Z,1.67
2022-08-08T12:16:57.251Z,1.60
2022-08-08T12:19:37.425Z,1.90
2022-08-08T12:22:20.673Z,1.93
2022-08-08T12:24:53.846Z,1.93
2022-08-08T12:27:27.066Z,1.70
2022-08-08T12:30:15.899Z,2.20
2022-08-08T12:32:49.376Z,1.70
2022-08-08T12:35:23.013Z,1.70
2022-08-08T12:38:07.941Z,1.90
2022-08-08T12:40:54.482Z,1.60
2022-08-08T12:43:46.558Z,2.00
2022-08-08T12:46:26.267Z,1.90
2022-08-08T12:51:58.821Z,1.93
2022-08-08T12:54:40.807Z,2.30
2022-08-08T12:57:24.228Z,1.80
2022-08-08T13:00:04.768Z,2.33
2022-08-08T13:02:36.164Z,1.80
2022-08-08T13:05:15.852Z,2.10
2022-08-08T13:08:02.936Z,1.80
2022-08-08T13:10:36.206Z,2.27
2022-08-08T13:13:07.955Z,1.70
2022-08-08T13:15:36.361Z,1.70
2022-08-08T13:18:11.099Z,1.90
2022-08-08T13:20:45.444Z,1.77
2022-08-08T13:23:36.758Z,2.07
2022-08-08T13:26:14.445Z,1.87
2022-08-08T13:28:45.420Z,1.93
2022-08-08T13:31:16.384Z,1.80
2022-08-08T13:33:49.833Z,1.90
2022-08-08T13:36:25.874Z,1.90
2022-08-08T13:38:54.079Z,1.67
2022-08-08T13:41:22.238Z,1.97
2022-08-08T13:43:50.799Z,1.70
2022-08-08T13:46:26.459Z,1.60
2022-08-08T13:50:33.264Z,2.30
2022-08-08T13:52:00.899Z,1.57
2022-08-08T13:54:31.366Z,1.77
2022-08-08T13:57:11.349Z,1.70
2022-08-08T13:59:41.149Z,1.43
2022-08-08T14:02:20.732Z,1.60
2022-08-08T14:05:09.593Z,1.90
2022-08-08T14:07:53.097Z,1.70
2022-08-08T14:10:32.514Z,1.50
2022-08-08T14:13:30.277Z,1.57
2022-08-08T14:16:04.730Z,1.80
2022-08-08T14:18:57.836Z,1.60
2022-08-08T14:21:51.793Z,1.50
2022-08-08T14:24:33.595Z,1.70
2022-08-08T14:27:01.563Z,1.57
2022-08-08T14:29:30.551Z,1.77
2022-08-08T14:32:12.765Z,1.73
2022-08-08T14:34:42.360Z,1.97
2022-08-08T14:37:13.000Z,1.77
2022-08-08T14:40:05.892Z,1.60
2022-08-08T14:42:55.342Z,2.10
2022-08-08T14:45:33.465Z,2.00
2022-08-08T14:48:13.239Z,2.00
2022-08-08T14:50:45.417Z,1.97
2022-08-08T14:53:15.191Z,1.90
2022-08-08T14:55:43.094Z,2.00
2022-08-08T14:58:12.076Z,1.70
2022-08-08T15:00:44.941Z,2.00
2022-08-08T15:03:15.055Z,1.97
2022-08-08T15:05:53.821Z,2.50
2022-08-08T15:08:35.385Z,1.97
2022-08-08T15:11:08.937Z,2.20
2022-08-08T15:13:40.737Z,1.90
2022-08-08T15:16:23.842Z,1.90
2022-08-08T15:18:51.781Z,2.33
2022-08-08T15:21:20.848Z,2.07
2022-08-08T15:23:51.158Z,2.40
2022-08-08T15:26:20.291Z,2.30
2022-08-08T15:28:52.922Z,2.20
2022-08-08T15:31:49.046Z,1.73
2022-08-08T15:34:08.420Z,2.03
2022-08-08T15:36:36.167Z,2.10
2022-08-08T15:39:04.082Z,2.30
2022-08-08T15:41:43.735Z,2.47
2022-08-08T15:44:13.364Z,2.17
2022-08-08T15:46:45.739Z,2.50
2022-08-08T15:49:17.862Z,2.40
2022-08-08T15:51:50.063Z,2.30
2022-08-08T15:54:18.916Z,2.33
2022-08-08T15:57:07.613Z,2.30
2022-08-08T16:00:06.618Z,2.00
2022-08-08T16:02:30.799Z,2.30
2022-08-08T16:04:58.679Z,1.90
2022-08-08T16:07:39.229Z,2.03
2022-08-08T16:13:10.234Z,2.03
2022-08-08T16:13:28.177Z,2.17
2022-08-08T16:15:59.337Z,2.10
2022-08-08T16:18:30.756Z,2.77
2022-08-08T16:21:00.013Z,2.33
2022-08-08T16:23:32.329Z,2.50
2022-08-08T16:26:12.690Z,2.30
2022-08-08T16:28:41.509Z,2.10
2022-08-08T16:31:09.446Z,2.30
2022-08-08T16:33:38.601Z,2.33
2022-08-08T16:36:15.619Z,2.30
2022-08-08T16:38:47.326Z,2.23
2022-08-08T16:41:20.639Z,2.17
2022-08-08T16:43:51.115Z,2.40
2022-08-08T16:46:37.768Z,2.83
2022-08-08T16:49:08.940Z,2.43
2022-08-08T16:55:05.576Z,2.70
2022-08-08T16:55:06.023Z,2.27
2022-08-08T16:57:27.967Z,2.53
2022-08-08T17:00:06.293Z,2.97
2022-08-08T17:02:39.340Z,2.30
2022-08-08T17:05:07.473Z,3.00
2022-08-08T17:07:37.503Z,2.60
2022-08-08T17:10:06.892Z,2.90
2022-08-08T17:12:36.559Z,2.57
2022-08-08T17:15:20.296Z,2.37
2022-08-08T17:18:03.033Z,2.70
2022-08-08T17:20:39.524Z,2.23
2022-08-08T17:23:25.655Z,2.50
2022-08-08T17:25:55.704Z,2.30
2022-08-08T17:28:34.584Z,2.57
2022-08-08T17:31:39.376Z,2.77
2022-08-08T17:34:49.366Z,3.07
2022-08-08T17:37:00.283Z,2.80
2022-08-08T17:40:04.163Z,2.30
2022-08-08T17:42:15.630Z,2.43
2022-08-08T17:44:44.204Z,2.40
2022-08-08T17:47:23.149Z,3.17
2022-08-08T17:49:53.005Z,2.50
2022-08-08T17:52:28.199Z,2.77
2022-08-08T17:54:56.100Z,3.00
2022-08-08T17:57:23.893Z,2.90
2022-08-08T17:59:51.797Z,2.83
2022-08-08T18:02:28.468Z,3.13
2022-08-08T18:04:58.326Z,3.43
2022-08-08T18:08:02.534Z,3.07
2022-08-08T18:10:15.413Z,3.67
2022-08-08T18:12:46.120Z,2.97
2022-08-08T18:15:14.357Z,3.20
2022-08-08T18:18:09.623Z,3.60
2022-08-08T18:20:44.293Z,3.00
2022-08-08T18:23:15.725Z,3.20
2022-08-08T18:25:43.992Z,3.63
2022-08-08T18:28:13.130Z,3.73
2022-08-08T18:30:42.667Z,3.87
2022-08-08T18:33:36.254Z,3.90
2022-08-08T18:36:03.209Z,3.30
2022-08-08T18:38:32.234Z,3.90
2022-08-08T18:41:03.085Z,3.23
2022-08-08T18:43:42.746Z,2.87
2022-08-08T18:46:55.506Z,2.97
2022-08-08T18:48:58.249Z,3.00
2022-08-08T18:51:52.552Z,3.77
2022-08-08T18:54:22.723Z,2.93
2022-08-08T18:56:53.843Z,3.20
2022-08-08T18:59:20.882Z,2.60
2022-08-08T19:02:25.391Z,2.90
2022-08-08T19:04:38.209Z,2.90
2022-08-08T19:07:05.835Z,2.83
2022-08-08T19:09:49.271Z,2.70
2022-08-08T19:12:26.584Z,2.90
2022-08-08T19:14:53.807Z,2.50
2022-08-08T19:18:31.018Z,2.93
2022-08-08T19:20:09.207Z,3.10
2022-08-08T19:22:36.978Z,2.60
2022-08-08T19:25:29.384Z,2.77
2022-08-08T19:27:56.334Z,3.23
2022-08-08T19:30:26.414Z,3.70
2022-08-08T19:32:54.052Z,3.00
2022-08-08T19:35:45.121Z,2.20
2022-08-08T19:38:17.441Z,2.00
2022-08-08T19:40:54.595Z,2.50
2022-08-08T19:43:28.344Z,2.20
2022-08-08T19:46:00.795Z,1.80
2022-08-08T19:48:30.888Z,2.10
2022-08-08T19:51:00.843Z,2.60
2022-08-08T19:53:53.437Z,2.23
2022-08-08T19:56:39.242Z,2.87
2022-08-08T19:59:07.492Z,2.27
2022-08-08T20:02:02.305Z,2.03
2022-08-08T20:04:23.616Z,3.07
2022-08-08T20:06:51.088Z,2.10
2022-08-08T20:09:22.882Z,2.57
2022-08-08T20:11:50.710Z,1.93
2022-08-08T20:14:34.385Z,1.60
2022-08-08T20:17:03.747Z,1.40
2022-08-08T20:19:33.493Z,2.00
2022-08-08T20:22:04.871Z,1.77
2022-08-08T20:24:40.319Z,2.50
2022-08-08T20:27:09.278Z,1.40
2022-08-08T20:29:56.110Z,1.60
2022-08-08T20:32:26.887Z,1.60
2022-08-08T20:35:01.118Z,1.73
2022-08-08T20:37:47.094Z,1.47
2022-08-08T20:40:17.225Z,1.60
2022-08-08T20:42:55.229Z,1.60
2022-08-08T20:45:54.740Z,1.57
2022-08-08T20:48:10.171Z,1.47
2022-08-08T20:50:37.670Z,1.40
2022-08-08T20:53:16.123Z,1.80
2022-08-08T20:55:45.250Z,2.43
2022-08-08T20:58:22.892Z,2.00
2022-08-08T21:00:50.797Z,2.00
2022-08-08T21:03:17.853Z,2.17
2022-08-08T21:05:58.619Z,1.70
2022-08-08T21:08:36.913Z,1.73
2022-08-08T21:11:13.598Z,1.90
2022-08-08T21:13:41.799Z,1.93
2022-08-08T21:16:20.865Z,1.83
2022-08-08T21:18:57.581Z,1.60
2022-08-08T21:21:39.796Z,1.90
2022-08-08T21:24:22.335Z,1.40
2022-08-08T21:26:55.872Z,2.00
2022-08-08T21:30:05.390Z,1.97
2022-08-08T21:32:14.261Z,1.90
2022-08-08T21:34:49.607Z,1.47
2022-08-08T21:37:19.218Z,1.50
2022-08-08T21:39:56.714Z,1.50
2022-08-08T21:42:24.403Z,1.90
2022-08-08T21:44:58.156Z,1.70
2022-08-08T21:48:07.326Z,1.73
2022-08-08T21:50:12.387Z,1.57
2022-08-08T21:54:30.977Z,1.40
2022-08-08T21:56:19.719Z,1.70
2022-08-08T21:58:13.930Z,1.87
2022-08-08T22:00:41.191Z,1.50
2022-08-08T22:03:10.969Z,1.60
2022-08-08T22:05:42.524Z,1.60
2022-08-08T22:08:09.502Z,1.90
2022-08-08T22:10:37.858Z,1.63
2022-08-08T22:13:18.325Z,1.50
2022-08-08T22:15:58.828Z,1.50
2022-08-08T22:18:29.651Z,1.83
2022-08-08T22:20:59.534Z,1.90
2022-08-08T22:23:35.982Z,1.97
2022-08-08T22:26:26.928Z,1.40
2022-08-08T22:29:03.955Z,1.90
2022-08-08T22:31:38.039Z,1.47
2022-08-08T22:34:13.021Z,1.63
2022-08-08T22:36:42.893Z,1.70
2022-08-08T22:39:18.892Z,2.20
2022-08-08T22:41:46.649Z,1.60
2022-08-08T22:44:16.556Z,2.00
2022-08-08T22:46:45.713Z,2.07
2022-08-08T22:49:17.897Z,2.00
2022-08-08T22:51:47.189Z,2.17
2022-08-08T22:54:30.623Z,2.13
2022-08-08T22:57:11.375Z,2.03
2022-08-08T22:59:58.986Z,1.83
2022-08-08T23:02:28.942Z,2.07
2022-08-08T23:04:56.611Z,1.73
2022-08-08T23:07:51.068Z,2.00
2022-08-08T23:10:21.065Z,1.80
2022-08-08T23:12:48.918Z,1.40
2022-08-08T23:16:40.637Z,2.20
2022-08-08T23:18:08.465Z,1.70
2022-08-08T23:20:43.356Z,1.90
2022-08-08T23:23:12.114Z,1.90
2022-08-08T23:25:48.233Z,2.10
2022-08-08T23:28:18.024Z,2.10
2022-08-08T23:30:47.551Z,2.10
2022-08-08T23:33:19.410Z,2.07
2022-08-08T23:36:08.199Z,2.13
2022-08-08T23:38:36.897Z,1.93
2022-08-08T23:41:17.313Z,2.10
2022-08-08T23:43:54.351Z,1.83
2022-08-08T23:49:05.628Z,1.90
2022-08-08T23:49:14.932Z,1.60
2022-08-08T23:52:07.235Z,1.70
2022-08-08T23:54:43.600Z,1.60
2022-08-08T23:57:26.870Z,1.70
